Terminal Aerodrome Forecast
Issued by NWS Corpus Christi, TX

Current Version | Previous Version | Text Only | Print | Product List | Glossary On
Versions: 1 2 3 4 5 6 7 8 9 10 11 12 13 14 15 16 17 18 19 20 21 22 23
000
FTUS44 KCRP 051136
TAFVCT
TAF
KVCT 051136Z 0512/0612 36011KT 6SM -RA BR SCT006 BKN015 OVC060
      TEMPO 0512/0513 3SM +RA BR BKN006 OVC015
     FM051600 33013KT P6SM BKN025 OVC060
     FM051900 31012KT P6SM SCT035 BKN060
     FM060100 24006KT P6SM FEW025 SCT100
     FM060900 25004KT 3SM BR SKC=

USA.gov is the U.S. government's official web portal to all federal, state and local government web resources and services.